sensor_id;sensor_type;location;lat;lon;timestamp;temperature;humidity
22337;DHT22;14992;50.844;4.418;2023-04-16T00:01:44;8.80;99.90
22337;DHT22;14992;50.844;4.418;2023-04-16T00:04:13;8.90;99.90
22337;DHT22;14992;50.844;4.418;2023-04-16T00:06:42;9.00;99.90
22337;DHT22;14992;50.844;4.418;2023-04-16T00:09:11;9.00;99.90
22337;DHT22;14992;50.844;4.418;2023-04-16T00:11:41;9.00;99.90
22337;DHT22;14992;50.844;4.418;2023-04-16T00:14:10;9.00;99.90
22337;DHT22;14992;50.844;4.418;2023-04-16T00:16:40;9.10;99.90
22337;DHT22;14992;50.844;4.418;2023-04-16T00:19:09;9.20;99.90
22337;DHT22;14992;50.844;4.418;2023-04-16T00:21:40;9.20;99.90
22337;DHT22;14992;50.844;4.418;2023-04-16T00:24:09;9.00;99.90
22337;DHT22;14992;50.844;4.418;2023-04-16T00:26:38;9.00;99.90
22337;DHT22;14992;50.844;4.418;2023-04-16T00:29:08;9.10;99.90
22337;DHT22;14992;50.844;4.418;2023-04-16T00:31:38;9.20;99.90
22337;DHT22;14992;50.844;4.418;2023-04-16T00:34:07;9.00;99.90
22337;DHT22;14992;50.844;4.418;2023-04-16T00:36:36;9.20;99.90
22337;DHT22;14992;50.844;4.418;2023-04-16T00:39:05;9.50;99.90
22337;DHT22;14992;50.844;4.418;2023-04-16T00:41:36;9.50;99.90
22337;DHT22;14992;50.844;4.418;2023-04-16T00:44:05;9.30;99.90
22337;DHT22;14992;50.844;4.418;2023-04-16T00:46:37;9.20;99.90
22337;DHT22;14992;50.844;4.418;2023-04-16T00:49:06;9.10;99.90
22337;DHT22;14992;50.844;4.418;2023-04-16T00:51:36;9.00;99.90
22337;DHT22;14992;50.844;4.418;2023-04-16T00:54:05;9.10;99.90
22337;DHT22;14992;50.844;4.418;2023-04-16T00:56:34;9.10;99.90
22337;DHT22;14992;50.844;4.418;2023-04-16T00:59:04;9.50;99.90
22337;DHT22;14992;50.844;4.418;2023-04-16T01:01:33;9.60;99.90
22337;DHT22;14992;50.844;4.418;2023-04-16T01:04:05;9.60;99.90
22337;DHT22;14992;50.844;4.418;2023-04-16T01:06:34;9.50;99.90
22337;DHT22;14992;50.844;4.418;2023-04-16T01:09:04;9.40;99.90
22337;DHT22;14992;50.844;4.418;2023-04-16T01:11:33;9.50;99.90
22337;DHT22;14992;50.844;4.418;2023-04-16T01:14:05;9.50;99.90
22337;DHT22;14992;50.844;4.418;2023-04-16T01:16:34;9.30;99.90
22337;DHT22;14992;50.844;4.418;2023-04-16T01:19:04;9.30;99.90
22337;DHT22;14992;50.844;4.418;2023-04-16T01:21:35;9.30;99.90
22337;DHT22;14992;50.844;4.418;2023-04-16T01:24:04;9.40;99.90
22337;DHT22;14992;50.844;4.418;2023-04-16T01:26:33;9.20;99.90
22337;DHT22;14992;50.844;4.418;2023-04-16T01:29:02;9.20;99.90
22337;DHT22;14992;50.844;4.418;2023-04-16T01:31:32;9.20;99.90
22337;DHT22;14992;50.844;4.418;2023-04-16T01:34:05;9.30;99.90
22337;DHT22;14992;50.844;4.418;2023-04-16T01:36:36;9.30;99.90
22337;DHT22;14992;50.844;4.418;2023-04-16T01:39:07;9.30;99.90
22337;DHT22;14992;50.844;4.418;2023-04-16T01:41:38;9.20;99.90
22337;DHT22;14992;50.844;4.418;2023-04-16T01:44:07;9.30;99.90
22337;DHT22;14992;50.844;4.418;2023-04-16T01:46:36;9.20;99.90
22337;DHT22;14992;50.844;4.418;2023-04-16T01:49:06;9.20;99.90
22337;DHT22;14992;50.844;4.418;2023-04-16T01:51:37;9.30;99.90
22337;DHT22;14992;50.844;4.418;2023-04-16T01:54:06;9.40;99.90
22337;DHT22;14992;50.844;4.418;2023-04-16T01:56:36;9.50;99.90
22337;DHT22;14992;50.844;4.418;2023-04-16T01:59:05;9.50;99.90
22337;DHT22;14992;50.844;4.418;2023-04-16T02:01:39;9.50;99.90
22337;DHT22;14992;50.844;4.418;2023-04-16T02:04:09;9.50;99.90
22337;DHT22;14992;50.844;4.418;2023-04-16T02:06:40;9.40;99.90
22337;DHT22;14992;50.844;4.418;2023-04-16T02:09:09;9.40;99.90
22337;DHT22;14992;50.844;4.418;2023-04-16T02:11:39;9.70;99.90
22337;DHT22;14992;50.844;4.418;2023-04-16T02:14:08;9.70;99.90
22337;DHT22;14992;50.844;4.418;2023-04-16T02:16:37;9.30;99.90
22337;DHT22;14992;50.844;4.418;2023-04-16T02:19:16;9.40;99.90
22337;DHT22;14992;50.844;4.418;2023-04-16T02:21:46;9.60;99.90
22337;DHT22;14992;50.844;4.418;2023-04-16T02:24:16;9.50;99.90
22337;DHT22;14992;50.844;4.418;2023-04-16T02:26:45;9.60;99.90
22337;DHT22;14992;50.844;4.418;2023-04-16T02:29:16;9.60;99.90
22337;DHT22;14992;50.844;4.418;2023-04-16T02:31:52;9.70;99.90
22337;DHT22;14992;50.844;4.418;2023-04-16T02:34:21;9.80;99.90
22337;DHT22;14992;50.844;4.418;2023-04-16T02:36:52;9.90;99.90
22337;DHT22;14992;50.844;4.418;2023-04-16T02:39:21;10.00;99.90
22337;DHT22;14992;50.844;4.418;2023-04-16T02:41:52;10.00;99.90
22337;DHT22;14992;50.844;4.418;2023-04-16T02:44:21;9.70;99.90
22337;DHT22;14992;50.844;4.418;2023-04-16T02:46:50;9.80;99.90
22337;DHT22;14992;50.844;4.418;2023-04-16T02:49:20;9.90;99.90
22337;DHT22;14992;50.844;4.418;2023-04-16T02:51:50;10.10;99.90
22337;DHT22;14992;50.844;4.418;2023-04-16T02:54:19;9.90;99.90
22337;DHT22;14992;50.844;4.418;2023-04-16T02:56:48;9.70;99.90
22337;DHT22;14992;50.844;4.418;2023-04-16T02:59:17;9.60;99.90
22337;DHT22;14992;50.844;4.418;2023-04-16T03:01:47;9.80;99.90
22337;DHT22;14992;50.844;4.418;2023-04-16T03:04:16;9.50;99.90
22337;DHT22;14992;50.844;4.418;2023-04-16T03:06:45;9.40;99.90
22337;DHT22;14992;50.844;4.418;2023-04-16T03:09:15;9.50;99.90
22337;DHT22;14992;50.844;4.418;2023-04-16T03:11:44;9.40;99.90
22337;DHT22;14992;50.844;4.418;2023-04-16T03:14:13;9.70;99.90
22337;DHT22;14992;50.844;4.418;2023-04-16T03:16:42;9.70;99.90
22337;DHT22;14992;50.844;4.418;2023-04-16T03:19:10;9.90;99.90
22337;DHT22;14992;50.844;4.418;2023-04-16T03:21:39;10.10;99.90
22337;DHT22;14992;50.844;4.418;2023-04-16T03:24:08;10.00;99.90
22337;DHT22;14992;50.844;4.418;2023-04-16T03:26:39;10.00;99.90
22337;DHT22;14992;50.844;4.418;2023-04-16T03:29:10;10.00;99.90
22337;DHT22;14992;50.844;4.418;2023-04-16T03:31:39;10.00;99.90
22337;DHT22;14992;50.844;4.418;2023-04-16T03:34:08;10.10;99.90
22337;DHT22;14992;50.844;4.418;2023-04-16T03:36:39;9.90;99.90
22337;DHT22;14992;50.844;4.418;2023-04-16T03:39:08;10.00;99.90
22337;DHT22;14992;50.844;4.418;2023-04-16T03:41:38;10.10;99.90
22337;DHT22;14992;50.844;4.418;2023-04-16T03:44:08;10.10;99.90
22337;DHT22;14992;50.844;4.418;2023-04-16T03:46:37;10.10;99.90
22337;DHT22;14992;50.844;4.418;2023-04-16T03:49:06;10.20;99.90
22337;DHT22;14992;50.844;4.418;2023-04-16T03:51:36;10.20;99.90
22337;DHT22;14992;50.844;4.418;2023-04-16T03:54:05;10.10;99.90
22337;DHT22;14992;50.844;4.418;2023-04-16T03:56:34;9.80;99.90
22337;DHT22;14992;50.844;4.418;2023-04-16T03:59:04;9.70;99.90
22337;DHT22;14992;50.844;4.418;2023-04-16T04:01:33;9.60;99.90
22337;DHT22;14992;50.844;4.418;2023-04-16T04:04:03;9.40;99.90
22337;DHT22;14992;50.844;4.418;2023-04-16T04:06:33;9.40;99.90
22337;DHT22;14992;50.844;4.418;2023-04-16T04:09:02;9.10;99.90
22337;DHT22;14992;50.844;4.418;2023-04-16T04:11:32;9.10;99.90
22337;DHT22;14992;50.844;4.418;2023-04-16T04:14:04;9.10;99.90
22337;DHT22;14992;50.844;4.418;2023-04-16T04:16:34;9.20;99.90
22337;DHT22;14992;50.844;4.418;2023-04-16T04:19:03;9.20;99.90
22337;DHT22;14992;50.844;4.418;2023-04-16T04:21:33;9.00;99.90
22337;DHT22;14992;50.844;4.418;2023-04-16T04:24:04;9.10;99.90
22337;DHT22;14992;50.844;4.418;2023-04-16T04:26:33;9.20;99.90
22337;DHT22;14992;50.844;4.418;2023-04-16T04:29:04;9.30;99.90
22337;DHT22;14992;50.844;4.418;2023-04-16T04:31:34;9.20;99.90
22337;DHT22;14992;50.844;4.418;2023-04-16T04:34:03;9.30;99.90
22337;DHT22;14992;50.844;4.418;2023-04-16T04:36:32;9.40;99.90
22337;DHT22;14992;50.844;4.418;2023-04-16T04:39:01;9.00;99.90
22337;DHT22;14992;50.844;4.418;2023-04-16T04:41:30;8.90;99.90
22337;DHT22;14992;50.844;4.418;2023-04-16T04:44:00;8.90;99.90
22337;DHT22;14992;50.844;4.418;2023-04-16T04:46:30;9.00;99.90
22337;DHT22;14992;50.844;4.418;2023-04-16T04:48:59;9.10;99.90
22337;DHT22;14992;50.844;4.418;2023-04-16T04:51:29;9.00;99.90
22337;DHT22;14992;50.844;4.418;2023-04-16T04:53:58;9.00;99.90
22337;DHT22;14992;50.844;4.418;2023-04-16T04:56:27;9.20;99.90
22337;DHT22;14992;50.844;4.418;2023-04-16T04:58:58;9.20;99.90
22337;DHT22;14992;50.844;4.418;2023-04-16T05:01:33;9.30;99.90
22337;DHT22;14992;50.844;4.418;2023-04-16T05:04:05;9.30;99.90
22337;DHT22;14992;50.844;4.418;2023-04-16T05:06:34;9.40;99.90
22337;DHT22;14992;50.844;4.418;2023-04-16T05:09:04;9.50;99.90
22337;DHT22;14992;50.844;4.418;2023-04-16T05:11:33;9.40;99.90
22337;DHT22;14992;50.844;4.418;2023-04-16T05:14:02;9.40;99.90
22337;DHT22;14992;50.844;4.418;2023-04-16T05:16:34;9.40;99.90
22337;DHT22;14992;50.844;4.418;2023-04-16T05:19:04;9.50;99.90
22337;DHT22;14992;50.844;4.418;2023-04-16T05:21:33;9.60;99.90
22337;DHT22;14992;50.844;4.418;2023-04-16T05:24:02;9.30;99.90
22337;DHT22;14992;50.844;4.418;2023-04-16T05:26:31;9.10;99.90
22337;DHT22;14992;50.844;4.418;2023-04-16T05:29:00;8.90;99.90
22337;DHT22;14992;50.844;4.418;2023-04-16T05:31:29;8.90;99.90
22337;DHT22;14992;50.844;4.418;2023-04-16T05:34:00;8.90;99.90
22337;DHT22;14992;50.844;4.418;2023-04-16T05:36:30;9.10;99.90
22337;DHT22;14992;50.844;4.418;2023-04-16T05:38:59;9.00;99.90
22337;DHT22;14992;50.844;4.418;2023-04-16T05:41:29;9.30;99.90
22337;DHT22;14992;50.844;4.418;2023-04-16T05:43:58;9.50;99.90
22337;DHT22;14992;50.844;4.418;2023-04-16T05:46:27;9.50;99.90
22337;DHT22;14992;50.844;4.418;2023-04-16T05:48:56;9.50;99.90
22337;DHT22;14992;50.844;4.418;2023-04-16T05:51:27;9.40;99.90
22337;DHT22;14992;50.844;4.418;2023-04-16T05:53:56;9.60;99.90
22337;DHT22;14992;50.844;4.418;2023-04-16T05:56:25;9.50;99.90
22337;DHT22;14992;50.844;4.418;2023-04-16T05:58:53;9.40;99.90
22337;DHT22;14992;50.844;4.418;2023-04-16T06:01:22;9.40;99.90
22337;DHT22;14992;50.844;4.418;2023-04-16T06:03:52;9.30;99.90
22337;DHT22;14992;50.844;4.418;2023-04-16T06:06:21;9.00;99.90
22337;DHT22;14992;50.844;4.418;2023-04-16T06:08:51;9.00;99.90
22337;DHT22;14992;50.844;4.418;2023-04-16T06:11:20;9.20;99.90
22337;DHT22;14992;50.844;4.418;2023-04-16T06:13:49;9.00;99.90
22337;DHT22;14992;50.844;4.418;2023-04-16T06:16:18;8.80;99.90
22337;DHT22;14992;50.844;4.418;2023-04-16T06:18:47;8.90;99.90
22337;DHT22;14992;50.844;4.418;2023-04-16T06:21:17;8.90;99.90
22337;DHT22;14992;50.844;4.418;2023-04-16T06:23:46;8.90;99.90
22337;DHT22;14992;50.844;4.418;2023-04-16T06:26:16;8.90;99.90
22337;DHT22;14992;50.844;4.418;2023-04-16T06:28:45;8.90;99.90
22337;DHT22;14992;50.844;4.418;2023-04-16T06:31:14;9.00;99.90
22337;DHT22;14992;50.844;4.418;2023-04-16T06:33:43;9.00;99.90
22337;DHT22;14992;50.844;4.418;2023-04-16T06:36:12;8.80;99.90
22337;DHT22;14992;50.844;4.418;2023-04-16T06:38:41;8.60;99.90
22337;DHT22;14992;50.844;4.418;2023-04-16T06:41:10;8.70;99.90
22337;DHT22;14992;50.844;4.418;2023-04-16T06:43:40;8.90;99.90
22337;DHT22;14992;50.844;4.418;2023-04-16T06:46:09;8.90;99.90
22337;DHT22;14992;50.844;4.418;2023-04-16T06:48:39;8.80;99.90
22337;DHT22;14992;50.844;4.418;2023-04-16T06:51:08;8.90;99.90
22337;DHT22;14992;50.844;4.418;2023-04-16T06:53:39;9.00;99.90
22337;DHT22;14992;50.844;4.418;2023-04-16T06:56:10;9.20;99.90
22337;DHT22;14992;50.844;4.418;2023-04-16T06:58:41;9.30;99.90
22337;DHT22;14992;50.844;4.418;2023-04-16T07:01:10;9.30;99.90
22337;DHT22;14992;50.844;4.418;2023-04-16T07:03:39;9.40;99.90
22337;DHT22;14992;50.844;4.418;2023-04-16T07:06:08;9.50;99.90
22337;DHT22;14992;50.844;4.418;2023-04-16T07:08:38;9.20;99.90
22337;DHT22;14992;50.844;4.418;2023-04-16T07:11:07;9.00;99.90
22337;DHT22;14992;50.844;4.418;2023-04-16T07:13:36;8.90;99.90
22337;DHT22;14992;50.844;4.418;2023-04-16T07:16:07;8.80;99.90
22337;DHT22;14992;50.844;4.418;2023-04-16T07:18:37;8.90;99.90
22337;DHT22;14992;50.844;4.418;2023-04-16T07:21:05;8.90;99.90
22337;DHT22;14992;50.844;4.418;2023-04-16T07:23:34;9.10;99.90
22337;DHT22;14992;50.844;4.418;2023-04-16T07:26:04;9.30;99.90
22337;DHT22;14992;50.844;4.418;2023-04-16T07:28:33;9.40;99.90
22337;DHT22;14992;50.844;4.418;2023-04-16T07:31:02;9.10;99.90
22337;DHT22;14992;50.844;4.418;2023-04-16T07:33:36;9.20;99.90
22337;DHT22;14992;50.844;4.418;2023-04-16T07:36:05;9.00;99.90
22337;DHT22;14992;50.844;4.418;2023-04-16T07:38:34;8.90;99.90
22337;DHT22;14992;50.844;4.418;2023-04-16T07:41:03;9.00;99.90
22337;DHT22;14992;50.844;4.418;2023-04-16T07:43:36;8.90;99.90
22337;DHT22;14992;50.844;4.418;2023-04-16T07:46:05;9.20;99.90
22337;DHT22;14992;50.844;4.418;2023-04-16T07:48:37;9.10;99.90
22337;DHT22;14992;50.844;4.418;2023-04-16T07:51:06;9.20;99.90
22337;DHT22;14992;50.844;4.418;2023-04-16T07:53:36;9.10;99.90
22337;DHT22;14992;50.844;4.418;2023-04-16T07:56:08;9.20;99.90
22337;DHT22;14992;50.844;4.418;2023-04-16T07:58:39;9.30;99.90
22337;DHT22;14992;50.844;4.418;2023-04-16T08:01:14;9.10;99.90
22337;DHT22;14992;50.844;4.418;2023-04-16T08:03:45;9.30;99.90
22337;DHT22;14992;50.844;4.418;2023-04-16T08:06:15;9.20;99.90
22337;DHT22;14992;50.844;4.418;2023-04-16T08:08:44;9.50;99.90
22337;DHT22;14992;50.844;4.418;2023-04-16T08:11:13;9.70;99.90
22337;DHT22;14992;50.844;4.418;2023-04-16T08:13:51;9.80;99.90
22337;DHT22;14992;50.844;4.418;2023-04-16T08:16:20;9.80;99.90
22337;DHT22;14992;50.844;4.418;2023-04-16T08:18:51;10.00;99.90
22337;DHT22;14992;50.844;4.418;2023-04-16T08:21:20;10.10;99.90
22337;DHT22;14992;50.844;4.418;2023-04-16T08:23:49;10.20;99.90
22337;DHT22;14992;50.844;4.418;2023-04-16T08:26:18;10.00;99.90
22337;DHT22;14992;50.844;4.418;2023-04-16T08:28:47;10.10;99.90
22337;DHT22;14992;50.844;4.418;2023-04-16T08:31:16;10.30;99.90
22337;DHT22;14992;50.844;4.418;2023-04-16T08:33:44;10.20;99.90
22337;DHT22;14992;50.844;4.418;2023-04-16T08:36:15;9.80;99.90
22337;DHT22;14992;50.844;4.418;2023-04-16T08:38:44;9.70;99.90
22337;DHT22;14992;50.844;4.418;2023-04-16T08:41:13;9.50;99.90
22337;DHT22;14992;50.844;4.418;2023-04-16T08:43:44;9.60;99.90
22337;DHT22;14992;50.844;4.418;2023-04-16T08:46:16;9.60;99.90
22337;DHT22;14992;50.844;4.418;2023-04-16T08:48:48;9.60;99.90
22337;DHT22;14992;50.844;4.418;2023-04-16T08:51:22;10.00;99.90
22337;DHT22;14992;50.844;4.418;2023-04-16T08:53:52;9.80;99.90
22337;DHT22;14992;50.844;4.418;2023-04-16T08:56:23;9.80;99.90
22337;DHT22;14992;50.844;4.418;2023-04-16T08:58:53;10.00;99.90
22337;DHT22;14992;50.844;4.418;2023-04-16T09:01:24;9.90;99.90
22337;DHT22;14992;50.844;4.418;2023-04-16T09:03:54;9.80;99.90
22337;DHT22;14992;50.844;4.418;2023-04-16T09:06:26;9.90;99.90
22337;DHT22;14992;50.844;4.418;2023-04-16T09:08:56;9.60;99.90
22337;DHT22;14992;50.844;4.418;2023-04-16T09:11:26;9.70;99.90
22337;DHT22;14992;50.844;4.418;2023-04-16T09:13:58;9.70;99.90
22337;DHT22;14992;50.844;4.418;2023-04-16T09:16:31;9.80;99.90
22337;DHT22;14992;50.844;4.418;2023-04-16T09:19:01;10.00;99.90
22337;DHT22;14992;50.844;4.418;2023-04-16T09:21:31;10.10;99.90
22337;DHT22;14992;50.844;4.418;2023-04-16T09:24:01;9.70;99.90
22337;DHT22;14992;50.844;4.418;2023-04-16T09:26:32;9.90;99.90
22337;DHT22;14992;50.844;4.418;2023-04-16T09:29:01;9.70;99.90
22337;DHT22;14992;50.844;4.418;2023-04-16T09:31:30;9.60;99.90
22337;DHT22;14992;50.844;4.418;2023-04-16T09:34:03;9.80;99.90
22337;DHT22;14992;50.844;4.418;2023-04-16T09:36:34;9.80;99.90
22337;DHT22;14992;50.844;4.418;2023-04-16T09:39:03;9.90;99.90
22337;DHT22;14992;50.844;4.418;2023-04-16T09:41:33;9.90;99.90
22337;DHT22;14992;50.844;4.418;2023-04-16T09:44:07;9.90;99.90
22337;DHT22;14992;50.844;4.418;2023-04-16T09:46:40;10.10;99.90
22337;DHT22;14992;50.844;4.418;2023-04-16T09:49:11;10.30;99.90
22337;DHT22;14992;50.844;4.418;2023-04-16T09:51:44;10.40;99.90
22337;DHT22;14992;50.844;4.418;2023-04-16T09:54:13;10.20;99.90
22337;DHT22;14992;50.844;4.418;2023-04-16T09:56:43;10.10;99.90
22337;DHT22;14992;50.844;4.418;2023-04-16T09:59:16;10.10;99.90
22337;DHT22;14992;50.844;4.418;2023-04-16T10:01:45;10.30;99.90
22337;DHT22;14992;50.844;4.418;2023-04-16T10:04:16;10.50;99.90
22337;DHT22;14992;50.844;4.418;2023-04-16T10:07:01;10.40;99.90
22337;DHT22;14992;50.844;4.418;2023-04-16T10:09:33;10.00;99.90
22337;DHT22;14992;50.844;4.418;2023-04-16T10:12:05;9.90;99.90
22337;DHT22;14992;50.844;4.418;2023-04-16T10:14:34;10.10;99.90
22337;DHT22;14992;50.844;4.418;2023-04-16T10:17:03;10.00;99.90
22337;DHT22;14992;50.844;4.418;2023-04-16T10:19:33;10.20;99.90
22337;DHT22;14992;50.844;4.418;2023-04-16T10:22:04;10.30;99.90
22337;DHT22;14992;50.844;4.418;2023-04-16T10:24:34;9.90;99.90
22337;DHT22;14992;50.844;4.418;2023-04-16T10:27:03;9.80;99.90
22337;DHT22;14992;50.844;4.418;2023-04-16T10:29:33;9.60;99.90
22337;DHT22;14992;50.844;4.418;2023-04-16T10:32:02;9.40;99.90
22337;DHT22;14992;50.844;4.418;2023-04-16T10:34:32;9.50;99.90
22337;DHT22;14992;50.844;4.418;2023-04-16T10:37:01;9.70;99.90
22337;DHT22;14992;50.844;4.418;2023-04-16T10:39:34;9.60;99.90
22337;DHT22;14992;50.844;4.418;2023-04-16T10:42:08;9.50;99.90
22337;DHT22;14992;50.844;4.418;2023-04-16T10:44:39;9.70;99.90
22337;DHT22;14992;50.844;4.418;2023-04-16T10:47:12;9.80;99.90
22337;DHT22;14992;50.844;4.418;2023-04-16T10:49:41;9.60;99.90
22337;DHT22;14992;50.844;4.418;2023-04-16T10:52:12;9.80;99.90
22337;DHT22;14992;50.844;4.418;2023-04-16T10:54:45;10.10;99.90
22337;DHT22;14992;50.844;4.418;2023-04-16T10:57:15;10.20;99.90
22337;DHT22;14992;50.844;4.418;2023-04-16T10:59:46;10.40;99.90
22337;DHT22;14992;50.844;4.418;2023-04-16T11:02:17;10.20;99.90
22337;DHT22;14992;50.844;4.418;2023-04-16T11:04:47;10.20;99.90
22337;DHT22;14992;50.844;4.418;2023-04-16T11:07:18;10.20;99.90
22337;DHT22;14992;50.844;4.418;2023-04-16T11:09:54;10.10;99.90
22337;DHT22;14992;50.844;4.418;2023-04-16T11:12:25;10.10;99.90
22337;DHT22;14992;50.844;4.418;2023-04-16T11:14:59;10.20;99.90
22337;DHT22;14992;50.844;4.418;2023-04-16T11:17:31;10.40;99.90
22337;DHT22;14992;50.844;4.418;2023-04-16T11:20:02;10.50;99.90
22337;DHT22;14992;50.844;4.418;2023-04-16T11:22:45;10.70;99.90
22337;DHT22;14992;50.844;4.418;2023-04-16T11:25:20;10.90;99.90
22337;DHT22;14992;50.844;4.418;2023-04-16T11:27:49;10.80;99.90
22337;DHT22;14992;50.844;4.418;2023-04-16T11:30:28;10.90;99.90
22337;DHT22;14992;50.844;4.418;2023-04-16T11:32:57;10.90;99.90
22337;DHT22;14992;50.844;4.418;2023-04-16T11:35:27;10.60;99.90
22337;DHT22;14992;50.844;4.418;2023-04-16T11:37:56;10.30;99.90
22337;DHT22;14992;50.844;4.418;2023-04-16T11:40:32;10.40;99.90
22337;DHT22;14992;50.844;4.418;2023-04-16T11:43:12;10.60;99.90
22337;DHT22;14992;50.844;4.418;2023-04-16T11:45:56;10.40;99.90
22337;DHT22;14992;50.844;4.418;2023-04-16T11:48:44;10.70;99.90
22337;DHT22;14992;50.844;4.418;2023-04-16T11:51:14;11.00;99.90
22337;DHT22;14992;50.844;4.418;2023-04-16T11:53:49;10.90;99.90
22337;DHT22;14992;50.844;4.418;2023-04-16T11:56:27;10.60;99.90
22337;DHT22;14992;50.844;4.418;2023-04-16T11:59:07;10.30;99.90
22337;DHT22;14992;50.844;4.418;2023-04-16T12:01:38;10.20;99.90
22337;DHT22;14992;50.844;4.418;2023-04-16T12:04:08;10.30;99.90
22337;DHT22;14992;50.844;4.418;2023-04-16T12:06:37;10.30;99.90
22337;DHT22;14992;50.844;4.418;2023-04-16T12:09:22;10.30;99.90
22337;DHT22;14992;50.844;4.418;2023-04-16T12:11:53;10.40;99.90
22337;DHT22;14992;50.844;4.418;2023-04-16T12:14:22;10.60;99.90
22337;DHT22;14992;50.844;4.418;2023-04-16T12:16:51;10.50;99.90
22337;DHT22;14992;50.844;4.418;2023-04-16T12:19:20;10.40;99.90
22337;DHT22;14992;50.844;4.418;2023-04-16T12:21:49;10.30;99.90
22337;DHT22;14992;50.844;4.418;2023-04-16T12:24:18;10.50;99.90
22337;DHT22;14992;50.844;4.418;2023-04-16T12:26:53;10.60;99.90
22337;DHT22;14992;50.844;4.418;2023-04-16T12:29:25;10.80;99.90
22337;DHT22;14992;50.844;4.418;2023-04-16T12:31:54;11.00;99.90
22337;DHT22;14992;50.844;4.418;2023-04-16T12:34:23;10.90;99.90
22337;DHT22;14992;50.844;4.418;2023-04-16T12:37:12;11.20;99.90
22337;DHT22;14992;50.844;4.418;2023-04-16T12:39:41;11.40;99.90
22337;DHT22;14992;50.844;4.418;2023-04-16T12:42:13;11.40;99.90
22337;DHT22;14992;50.844;4.418;2023-04-16T12:44:43;11.20;99.90
22337;DHT22;14992;50.844;4.418;2023-04-16T12:47:12;11.10;99.90
22337;DHT22;14992;50.844;4.418;2023-04-16T12:49:41;11.00;99.90
22337;DHT22;14992;50.844;4.418;2023-04-16T12:52:12;11.20;99.90
22337;DHT22;14992;50.844;4.418;2023-04-16T12:54:41;11.10;99.90
22337;DHT22;14992;50.844;4.418;2023-04-16T12:57:10;11.20;99.90
22337;DHT22;14992;50.844;4.418;2023-04-16T12:59:41;11.20;99.90
22337;DHT22;14992;50.844;4.418;2023-04-16T13:02:10;11.00;99.90
22337;DHT22;14992;50.844;4.418;2023-04-16T13:04:39;11.10;99.90
22337;DHT22;14992;50.844;4.418;2023-04-16T13:07:08;11.10;99.90
22337;DHT22;14992;50.844;4.418;2023-04-16T13:09:38;10.80;99.90
22337;DHT22;14992;50.844;4.418;2023-04-16T13:12:07;11.00;99.90
22337;DHT22;14992;50.844;4.418;2023-04-16T13:14:36;11.10;99.90
22337;DHT22;14992;50.844;4.418;2023-04-16T13:17:06;11.40;99.90
22337;DHT22;14992;50.844;4.418;2023-04-16T13:19:35;11.10;99.90
22337;DHT22;14992;50.844;4.418;2023-04-16T13:22:05;11.00;99.90
22337;DHT22;14992;50.844;4.418;2023-04-16T13:24:34;10.90;99.90
22337;DHT22;14992;50.844;4.418;2023-04-16T13:27:05;10.80;99.90
22337;DHT22;14992;50.844;4.418;2023-04-16T13:29:35;10.80;99.90
22337;DHT22;14992;50.844;4.418;2023-04-16T13:32:06;11.00;99.90
22337;DHT22;14992;50.844;4.418;2023-04-16T13:34:35;11.30;99.90
22337;DHT22;14992;50.844;4.418;2023-04-16T13:37:04;11.50;99.90
22337;DHT22;14992;50.844;4.418;2023-04-16T13:39:33;11.50;99.90
22337;DHT22;14992;50.844;4.418;2023-04-16T13:42:02;11.40;99.90
22337;DHT22;14992;50.844;4.418;2023-04-16T13:44:31;11.40;99.90
22337;DHT22;14992;50.844;4.418;2023-04-16T13:47:01;11.20;99.90
22337;DHT22;14992;50.844;4.418;2023-04-16T13:49:31;11.00;99.90
22337;DHT22;14992;50.844;4.418;2023-04-16T13:52:02;11.30;99.90
22337;DHT22;14992;50.844;4.418;2023-04-16T13:54:32;11.60;99.90
22337;DHT22;14992;50.844;4.418;2023-04-16T13:57:01;11.30;99.90
22337;DHT22;14992;50.844;4.418;2023-04-16T13:59:30;11.50;99.90
22337;DHT22;14992;50.844;4.418;2023-04-16T14:01:59;11.70;99.90
22337;DHT22;14992;50.844;4.418;2023-04-16T14:04:28;11.40;99.90
22337;DHT22;14992;50.844;4.418;2023-04-16T14:06:59;11.30;99.90
22337;DHT22;14992;50.844;4.418;2023-04-16T14:09:28;11.60;99.90
22337;DHT22;14992;50.844;4.418;2023-04-16T14:11:57;11.50;99.90
22337;DHT22;14992;50.844;4.418;2023-04-16T14:14:26;11.70;99.90
22337;DHT22;14992;50.844;4.418;2023-04-16T14:16:54;11.80;99.90
22337;DHT22;14992;50.844;4.418;2023-04-16T14:19:26;11.60;99.90
22337;DHT22;14992;50.844;4.418;2023-04-16T14:21:55;11.50;99.90
22337;DHT22;14992;50.844;4.418;2023-04-16T14:24:28;11.50;99.90
22337;DHT22;14992;50.844;4.418;2023-04-16T14:26:59;11.80;99.90
22337;DHT22;14992;50.844;4.418;2023-04-16T14:29:30;11.80;99.90
22337;DHT22;14992;50.844;4.418;2023-04-16T14:31:59;11.80;99.90
22337;DHT22;14992;50.844;4.418;2023-04-16T14:34:27;12.20;99.90
22337;DHT22;14992;50.844;4.418;2023-04-16T14:36:57;12.20;99.90
22337;DHT22;14992;50.844;4.418;2023-04-16T14:39:26;12.30;99.90
22337;DHT22;14992;50.844;4.418;2023-04-16T14:41:56;12.30;99.90
22337;DHT22;14992;50.844;4.418;2023-04-16T14:44:25;12.20;99.90
22337;DHT22;14992;50.844;4.418;2023-04-16T14:46:55;12.20;99.90
22337;DHT22;14992;50.844;4.418;2023-04-16T14:49:25;12.30;99.90
22337;DHT22;14992;50.844;4.418;2023-04-16T14:51:59;12.10;99.90
22337;DHT22;14992;50.844;4.418;2023-04-16T14:54:45;12.50;99.90
22337;DHT22;14992;50.844;4.418;2023-04-16T14:57:16;12.80;99.90
22337;DHT22;14992;50.844;4.418;2023-04-16T14:59:45;12.90;99.90
22337;DHT22;14992;50.844;4.418;2023-04-16T15:02:16;12.90;99.90
22337;DHT22;14992;50.844;4.418;2023-04-16T15:04:45;12.90;99.90
22337;DHT22;14992;50.844;4.418;2023-04-16T15:07:14;12.50;99.90
22337;DHT22;14992;50.844;4.418;2023-04-16T15:09:43;11.90;99.90
22337;DHT22;14992;50.844;4.418;2023-04-16T15:12:15;11.80;99.90
22337;DHT22;14992;50.844;4.418;2023-04-16T15:14:45;12.00;99.90
22337;DHT22;14992;50.844;4.418;2023-04-16T15:17:15;12.20;99.90
22337;DHT22;14992;50.844;4.418;2023-04-16T15:19:44;12.50;99.90
22337;DHT22;14992;50.844;4.418;2023-04-16T15:22:15;12.00;99.90
22337;DHT22;14992;50.844;4.418;2023-04-16T15:24:44;12.00;99.90
22337;DHT22;14992;50.844;4.418;2023-04-16T15:27:13;12.10;99.90
22337;DHT22;14992;50.844;4.418;2023-04-16T15:29:45;12.20;99.90
22337;DHT22;14992;50.844;4.418;2023-04-16T15:32:16;12.30;99.90
22337;DHT22;14992;50.844;4.418;2023-04-16T15:34:44;12.30;99.90
22337;DHT22;14992;50.844;4.418;2023-04-16T15:37:14;12.40;99.90
22337;DHT22;14992;50.844;4.418;2023-04-16T15:39:43;12.50;99.90
22337;DHT22;14992;50.844;4.418;2023-04-16T15:42:12;12.50;99.90
22337;DHT22;14992;50.844;4.418;2023-04-16T15:44:41;12.50;99.90
22337;DHT22;14992;50.844;4.418;2023-04-16T15:47:11;12.60;99.90
22337;DHT22;14992;50.844;4.418;2023-04-16T15:49:40;12.70;99.90
22337;DHT22;14992;50.844;4.418;2023-04-16T15:52:10;12.90;99.90
22337;DHT22;14992;50.844;4.418;2023-04-16T15:54:39;12.60;99.90
22337;DHT22;14992;50.844;4.418;2023-04-16T15:57:08;12.50;99.90
22337;DHT22;14992;50.844;4.418;2023-04-16T15:59:37;12.10;99.90